createdAt,value
2024-02-10T00:01:26.431Z,8.45
2024-02-10T00:05:39.549Z,7.55
2024-02-10T00:09:52.215Z,8.25
2024-02-10T00:14:04.884Z,9.80
2024-02-10T00:18:21.169Z,6.68
2024-02-10T00:22:33.772Z,6.25
2024-02-10T00:26:47.714Z,6.68
2024-02-10T00:31:01.893Z,9.00
2024-02-10T00:35:14.414Z,9.38
2024-02-10T00:39:26.964Z,11.63
2024-02-10T00:43:44.777Z,13.95
2024-02-10T00:47:57.889Z,11.02
2024-02-10T00:52:10.927Z,6.68
2024-02-10T00:56:23.734Z,7.45
2024-02-10T01:00:38.448Z,8.05
2024-02-10T01:04:51.667Z,5.93
2024-02-10T01:09:04.345Z,8.18
2024-02-10T01:13:16.947Z,4.10
2024-02-10T01:17:29.491Z,8.32
2024-02-10T01:21:42.102Z,6.60
2024-02-10T01:25:54.760Z,7.03
2024-02-10T01:30:09.336Z,8.52
2024-02-10T01:34:21.880Z,6.50
2024-02-10T01:38:46.825Z,8.68
2024-02-10T01:42:59.409Z,7.82
2024-02-10T01:47:13.781Z,13.00
2024-02-10T01:51:26.575Z,11.52
2024-02-10T01:55:39.461Z,7.47
2024-02-10T01:59:53.960Z,7.82
2024-02-10T02:04:10.437Z,8.38
2024-02-10T02:08:23.128Z,11.63
2024-02-10T02:12:35.644Z,7.80
2024-02-10T02:16:48.644Z,6.65
2024-02-10T02:21:01.900Z,10.45
2024-02-10T02:25:14.597Z,8.30
2024-02-10T02:29:27.078Z,5.13
2024-02-10T02:33:40.608Z,8.23
2024-02-10T02:37:54.705Z,4.35
2024-02-10T02:42:07.681Z,4.43
2024-02-10T02:46:20.370Z,11.32
2024-02-10T02:50:33.513Z,7.65
2024-02-10T02:54:46.144Z,4.97
2024-02-10T02:58:59.052Z,4.10
2024-02-10T03:03:11.561Z,8.88
2024-02-10T03:07:24.603Z,5.68
2024-02-10T03:11:38.277Z,7.63
2024-02-10T03:15:50.754Z,4.78
2024-02-10T03:20:03.355Z,6.97
2024-02-10T03:24:15.842Z,9.45
2024-02-10T03:28:28.302Z,10.48
2024-02-10T03:32:40.895Z,8.68
2024-02-10T03:36:53.394Z,6.97
2024-02-10T03:41:06.192Z,8.73
2024-02-10T03:45:20.418Z,7.93
2024-02-10T03:49:33.021Z,6.65
2024-02-10T03:53:45.582Z,10.65
2024-02-10T03:58:01.064Z,7.05
2024-02-10T04:02:13.603Z,8.00
2024-02-10T04:06:26.151Z,8.63
2024-02-10T04:10:38.996Z,9.73
2024-02-10T04:14:51.534Z,5.90
2024-02-10T04:19:04.253Z,7.22
2024-02-10T04:23:18.036Z,8.35
2024-02-10T04:27:30.879Z,13.27
2024-02-10T04:31:43.414Z,8.38
2024-02-10T04:35:56.009Z,9.48
2024-02-10T04:40:09.328Z,9.65
2024-02-10T04:44:22.326Z,7.45
2024-02-10T04:48:34.858Z,8.23
2024-02-10T04:52:48.094Z,7.05
2024-02-10T04:57:00.894Z,8.75
2024-02-10T05:01:14.166Z,10.02
2024-02-10T05:05:27.095Z,13.05
2024-02-10T05:09:40.924Z,7.60
2024-02-10T05:13:53.460Z,9.18
2024-02-10T05:18:07.156Z,6.28
2024-02-10T05:22:20.701Z,7.75
2024-02-10T05:26:38.378Z,7.50
2024-02-10T05:30:52.487Z,9.43
2024-02-10T05:35:05.526Z,7.20
2024-02-10T05:39:22.054Z,9.85
2024-02-10T05:43:35.022Z,6.88
2024-02-10T05:47:51.712Z,11.05
2024-02-10T05:52:07.385Z,8.68
2024-02-10T05:56:19.938Z,6.47
2024-02-10T06:00:33.769Z,7.63
2024-02-10T06:04:46.466Z,8.07
2024-02-10T06:08:59.328Z,6.55
2024-02-10T06:13:11.882Z,7.72
2024-02-10T06:17:26.253Z,6.63
2024-02-10T06:21:39.451Z,5.78
2024-02-10T06:25:55.486Z,13.30
2024-02-10T06:30:18.981Z,7.30
2024-02-10T06:34:31.546Z,6.07
2024-02-10T06:38:44.215Z,5.60
2024-02-10T06:42:56.752Z,5.55
2024-02-10T06:47:09.317Z,5.32
2024-02-10T06:51:23.688Z,6.38
2024-02-10T06:55:36.318Z,5.03
2024-02-10T06:59:49.769Z,7.97
2024-02-10T07:04:02.323Z,8.27
2024-02-10T07:08:17.010Z,9.45
2024-02-10T07:12:29.546Z,5.75
2024-02-10T07:16:42.250Z,6.78
2024-02-10T07:20:54.816Z,4.95
2024-02-10T07:25:09.656Z,6.35
2024-02-10T07:29:22.188Z,6.68
2024-02-10T07:33:34.865Z,7.05
2024-02-10T07:37:48.762Z,8.25
2024-02-10T07:42:03.351Z,6.35
2024-02-10T07:46:18.773Z,9.20
2024-02-10T07:50:31.309Z,10.38
2024-02-10T07:54:43.909Z,8.57
2024-02-10T07:59:01.852Z,9.60
2024-02-10T08:03:14.544Z,6.47
2024-02-10T08:07:32.123Z,8.63
2024-02-10T08:11:45.690Z,12.02
2024-02-10T08:16:00.447Z,6.68
2024-02-10T08:20:14.412Z,10.65
2024-02-10T08:24:33.212Z,9.27
2024-02-10T08:28:59.271Z,6.32
2024-02-10T08:33:11.883Z,8.35
2024-02-10T08:37:24.506Z,11.23
2024-02-10T08:41:37.719Z,8.43
2024-02-10T08:45:50.268Z,6.07
2024-02-10T08:50:03.676Z,7.25
2024-02-10T08:54:16.578Z,7.53
2024-02-10T08:58:29.163Z,5.35
2024-02-10T09:02:41.746Z,8.07
2024-02-10T09:06:54.302Z,8.65
2024-02-10T09:11:07.016Z,10.07
2024-02-10T09:15:19.613Z,5.18
2024-02-10T09:19:37.214Z,8.93
2024-02-10T09:23:49.900Z,8.55
2024-02-10T09:28:02.807Z,10.98
2024-02-10T09:32:16.506Z,7.28
2024-02-10T09:36:33.417Z,7.70
2024-02-10T09:40:47.908Z,8.02
2024-02-10T09:45:00.567Z,6.70
2024-02-10T09:49:15.694Z,6.68
2024-02-10T09:53:28.274Z,12.57
2024-02-10T09:57:43.780Z,9.70
2024-02-10T10:01:58.215Z,6.40
2024-02-10T10:06:12.168Z,6.78
2024-02-10T10:10:24.737Z,7.32
2024-02-10T10:14:40.737Z,7.70
2024-02-10T10:18:54.868Z,7.75
2024-02-10T10:23:09.382Z,12.15
2024-02-10T10:27:24.026Z,15.23
2024-02-10T10:31:37.897Z,10.93
2024-02-10T10:35:50.907Z,9.98
2024-02-10T10:40:04.019Z,9.90
2024-02-10T10:44:16.758Z,6.53
2024-02-10T10:48:29.408Z,6.60
2024-02-10T10:52:43.163Z,7.60
2024-02-10T10:56:55.761Z,7.50
2024-02-10T11:01:13.759Z,6.25
2024-02-10T11:05:28.922Z,7.00
2024-02-10T11:09:56.238Z,5.32
2024-02-10T11:14:12.666Z,7.07
2024-02-10T11:18:25.315Z,5.88
2024-02-10T11:22:39.400Z,8.02
2024-02-10T11:26:56.067Z,5.72
2024-02-10T11:31:11.461Z,7.20
2024-02-10T11:35:24.091Z,5.80
2024-02-10T11:39:36.698Z,6.65
2024-02-10T11:43:52.470Z,5.35
2024-02-10T11:48:05.425Z,5.28
2024-02-10T11:52:18.244Z,8.70
2024-02-10T11:56:35.442Z,5.95
2024-02-10T12:00:48.426Z,6.70
2024-02-10T12:05:01.212Z,6.75
2024-02-10T12:09:13.949Z,5.95
2024-02-10T12:13:28.979Z,5.53
2024-02-10T12:17:41.664Z,5.63
2024-02-10T12:21:54.300Z,6.95
2024-02-10T12:26:06.831Z,8.50
2024-02-10T12:30:20.961Z,8.48
2024-02-10T12:34:33.836Z,6.40
2024-02-10T12:38:46.645Z,6.05
2024-02-10T12:42:59.133Z,8.82
2024-02-10T12:47:13.685Z,9.07
2024-02-10T12:51:27.090Z,7.45
2024-02-10T12:55:40.254Z,6.55
2024-02-10T12:59:55.443Z,8.15
2024-02-10T13:04:07.963Z,5.15
2024-02-10T13:08:20.472Z,5.47
2024-02-10T13:12:34.158Z,7.45
2024-02-10T13:16:46.820Z,8.15
2024-02-10T13:21:00.534Z,7.30
2024-02-10T13:25:13.456Z,7.00
2024-02-10T13:29:26.722Z,4.70
2024-02-10T13:33:42.698Z,5.63
2024-02-10T13:38:14.264Z,4.13
2024-02-10T13:42:45.203Z,3.67
2024-02-10T13:47:16.392Z,6.55
2024-02-10T13:51:48.245Z,4.80
2024-02-10T13:56:19.177Z,8.05
2024-02-10T14:00:32.860Z,3.67
2024-02-10T14:04:49.742Z,4.15
2024-02-10T14:09:06.175Z,2.85
2024-02-10T14:13:26.701Z,2.20
2024-02-10T14:17:40.247Z,2.47
2024-02-10T14:21:54.963Z,1.90
2024-02-10T14:26:14.452Z,1.67
2024-02-10T14:30:40.026Z,1.27
2024-02-10T14:35:20.890Z,1.60
2024-02-10T14:39:35.777Z,1.38
2024-02-10T14:43:48.387Z,1.13
2024-02-10T14:48:00.957Z,2.10
2024-02-10T14:52:15.216Z,0.90
2024-02-10T14:56:32.905Z,1.55
2024-02-10T15:00:51.762Z,1.33
2024-02-10T15:05:04.757Z,1.27
2024-02-10T15:09:19.390Z,1.88
2024-02-10T15:13:31.916Z,1.42
2024-02-10T15:17:46.830Z,1.88
2024-02-10T15:22:00.646Z,0.90
2024-02-10T15:26:14.520Z,0.77
2024-02-10T15:30:27.133Z,0.82
2024-02-10T15:34:48.118Z,0.80
2024-02-10T15:39:07.894Z,0.65
2024-02-10T15:43:23.161Z,1.13
2024-02-10T15:47:35.751Z,1.25
2024-02-10T15:51:48.302Z,1.52
2024-02-10T15:56:00.802Z,1.33
2024-02-10T16:00:16.939Z,1.58
2024-02-10T16:04:29.835Z,2.22
2024-02-10T16:08:51.262Z,1.52
2024-02-10T16:13:03.793Z,2.40
2024-02-10T16:17:16.701Z,1.48
2024-02-10T16:21:30.899Z,3.40
2024-02-10T16:25:45.357Z,2.17
2024-02-10T16:30:02.493Z,1.85
2024-02-10T16:34:15.206Z,2.13
2024-02-10T16:38:27.791Z,2.17
2024-02-10T16:42:40.285Z,4.47
2024-02-10T16:46:53.382Z,6.72
2024-02-10T16:51:06.773Z,5.43
2024-02-10T16:55:19.989Z,3.50
2024-02-10T16:59:32.543Z,1.80
2024-02-10T17:03:45.374Z,2.63
2024-02-10T17:08:06.684Z,2.05
2024-02-10T17:12:20.694Z,3.33
2024-02-10T17:16:33.533Z,3.08
2024-02-10T17:20:48.559Z,3.28
2024-02-10T17:25:01.138Z,5.05
2024-02-10T17:29:13.775Z,4.18
2024-02-10T17:33:26.575Z,5.45
2024-02-10T17:37:41.673Z,5.82
2024-02-10T17:41:54.190Z,3.85
2024-02-10T17:46:06.741Z,4.03
2024-02-10T17:50:26.729Z,3.40
2024-02-10T17:54:39.238Z,5.07
2024-02-10T17:58:52.748Z,3.92
2024-02-10T18:03:05.362Z,6.80
2024-02-10T18:07:18.073Z,4.40
2024-02-10T18:11:30.551Z,6.03
2024-02-10T18:15:43.386Z,6.40
2024-02-10T18:19:56.865Z,5.95
2024-02-10T18:24:10.971Z,4.75
2024-02-10T18:28:23.978Z,4.75
2024-02-10T18:32:37.049Z,7.07
2024-02-10T18:36:50.402Z,5.90
2024-02-10T18:41:02.984Z,5.82
2024-02-10T18:45:16.291Z,4.55
2024-02-10T18:49:29.562Z,6.13
2024-02-10T18:53:42.097Z,6.82
2024-02-10T18:57:54.662Z,5.25
2024-02-10T19:02:08.326Z,4.45
2024-02-10T19:06:24.184Z,5.38
2024-02-10T19:10:37.596Z,5.60
2024-02-10T19:14:50.223Z,7.20
2024-02-10T19:19:02.886Z,6.53
2024-02-10T19:23:15.646Z,5.88
2024-02-10T19:27:28.157Z,5.85
2024-02-10T19:31:42.012Z,6.85
2024-02-10T19:35:55.115Z,6.80
2024-02-10T19:40:09.091Z,7.03
2024-02-10T19:44:23.993Z,7.80
2024-02-10T19:48:36.624Z,5.22
2024-02-10T19:52:49.340Z,6.30
2024-02-10T19:57:02.986Z,5.53
2024-02-10T20:01:15.467Z,4.65
2024-02-10T20:05:28.664Z,7.25
2024-02-10T20:09:41.325Z,6.18
2024-02-10T20:13:54.531Z,6.22
2024-02-10T20:18:07.244Z,5.82
2024-02-10T20:22:20.364Z,11.07
2024-02-10T20:26:32.958Z,6.47
2024-02-10T20:30:46.562Z,6.32
2024-02-10T20:34:59.878Z,5.55
2024-02-10T20:39:15.970Z,5.43
2024-02-10T20:43:28.509Z,5.03
2024-02-10T20:47:41.564Z,5.43
2024-02-10T20:51:56.730Z,7.68
2024-02-10T20:56:14.470Z,5.03
2024-02-10T21:00:27.375Z,7.13
2024-02-10T21:04:39.910Z,5.57
2024-02-10T21:08:52.410Z,8.82
2024-02-10T21:13:05.070Z,5.95
2024-02-10T21:17:17.588Z,6.55
2024-02-10T21:21:30.200Z,7.80
2024-02-10T21:25:45.172Z,5.45
2024-02-10T21:29:58.930Z,4.40
2024-02-10T21:34:12.064Z,6.40
2024-02-10T21:38:24.600Z,4.32
2024-02-10T21:42:38.122Z,4.93
2024-02-10T21:46:52.498Z,5.82
2024-02-10T21:51:05.213Z,7.20
2024-02-10T21:55:17.805Z,5.63
2024-02-10T21:59:30.315Z,6.28
2024-02-10T22:03:43.182Z,7.40
2024-02-10T22:07:55.840Z,6.35
2024-02-10T22:12:09.706Z,5.55
2024-02-10T22:16:23.079Z,7.53
2024-02-10T22:20:36.156Z,8.95
2024-02-10T22:24:48.652Z,7.90
2024-02-10T22:29:01.203Z,6.90
2024-02-10T22:33:14.586Z,10.40
2024-02-10T22:37:27.193Z,7.95
2024-02-10T22:41:42.790Z,6.28
2024-02-10T22:45:55.471Z,8.25
2024-02-10T22:50:08.132Z,5.97
2024-02-10T22:54:20.682Z,9.23
2024-02-10T22:58:33.177Z,7.35
2024-02-10T23:02:47.090Z,6.45
2024-02-10T23:07:00.588Z,7.53
2024-02-10T23:11:13.065Z,7.97
2024-02-10T23:15:25.939Z,6.70
2024-02-10T23:19:44.180Z,6.25
2024-02-10T23:24:00.688Z,9.27
2024-02-10T23:28:17.256Z,6.45
2024-02-10T23:32:32.844Z,7.47
2024-02-10T23:36:50.567Z,8.95
2024-02-10T23:41:05.857Z,7.28
2024-02-10T23:45:19.098Z,7.45
2024-02-10T23:49:38.044Z,8.10
2024-02-10T23:53:51.946Z,7.97
2024-02-10T23:58:06.494Z,9.15
